Time;durP1;ratioP1;P1;durP2;ratioP2;P2;SDS_P1;SDS_P2;PMS_P1;PMS_P2;Temp;Humidity;BMP_temperature;BMP_pressure;BME280_temperature;BME280_humidity;BME280_pressure;Samples;Min_cycle;Max_cycle;Signal;HPM_P1;HPM_P2
2022/05/10 00:01:04;;;;;;;5.28;3.38;;;;;;;;;;4955715;29;20039;-83
2022/05/10 00:03:36;;;;;;;4.93;2.83;;;;;;;;;;4956571;29;20635;-83
2022/05/10 00:06:03;;;;;;;5.03;3.50;;;;;;;;;;4955495;29;20035;-83
2022/05/10 00:08:31;;;;;;;4.93;3.42;;;;;;;;;;4954514;29;20051;-83
2022/05/10 00:10:57;;;;;;;6.55;3.50;;;;;;;;;;4955968;29;20039;-83
2022/05/10 00:13:24;;;;;;;6.88;3.55;;;;;;;;;;4955935;29;20035;-83
2022/05/10 00:15:50;;;;;;;4.40;3.40;;;;;;;;;;4955641;29;20531;-83
2022/05/10 00:18:17;;;;;;;4.55;3.10;;;;;;;;;;4955631;29;20027;-83
2022/05/10 00:20:44;;;;;;;6.57;3.30;;;;;;;;;;4954508;29;20031;-83
2022/05/10 00:23:10;;;;;;;7.13;3.55;;;;;;;;;;4938825;29;20050;-83
2022/05/10 00:25:35;;;;;;;5.57;3.13;;;;;;;;;;4956950;28;20039;-83
2022/05/10 00:28:00;;;;;;;6.25;3.38;;;;;;;;;;4959651;29;20045;-83
2022/05/10 00:30:27;;;;;;;9.20;3.60;;;;;;;;;;4957858;29;20555;-82
2022/05/10 00:32:53;;;;;;;7.78;3.63;;;;;;;;;;4957656;28;20086;-83
2022/05/10 00:35:25;;;;;;;5.05;3.40;;;;;;;;;;4957815;29;20034;-83
2022/05/10 00:37:54;;;;;;;10.90;4.00;;;;;;;;;;4959775;29;20036;-83
2022/05/10 00:40:22;;;;;;;8.45;3.67;;;;;;;;;;4942159;29;20047;-83
2022/05/10 00:43:28;;;;;;;6.68;3.58;;;;;;;;;;4959403;29;20078;-83
2022/05/10 00:46:01;;;;;;;5.07;3.38;;;;;;;;;;4959171;29;20038;-83
2022/05/10 00:48:32;;;;;;;12.88;3.50;;;;;;;;;;4958714;29;20031;-83
2022/05/10 00:51:15;;;;;;;4.90;3.25;;;;;;;;;;4959008;29;20159;-83
2022/05/10 00:54:02;;;;;;;5.88;3.28;;;;;;;;;;4959334;29;20047;-85
2022/05/10 00:56:49;;;;;;;6.03;3.47;;;;;;;;;;4957459;28;20071;-84
2022/05/10 00:59:59;;;;;;;6.65;3.42;;;;;;;;;;4957609;28;20045;-81
2022/05/10 01:02:37;;;;;;;4.57;2.95;;;;;;;;;;4915420;29;20066;-84
2022/05/10 01:05:25;;;;;;;5.78;3.20;;;;;;;;;;4958898;29;20035;-82
2022/05/10 01:08:23;;;;;;;5.63;3.42;;;;;;;;;;4958660;29;20086;-84
2022/05/10 01:11:27;;;;;;;5.05;3.20;;;;;;;;;;4952256;29;20155;-84
2022/05/10 01:14:01;;;;;;;4.38;3.05;;;;;;;;;;4957182;29;20525;-84
2022/05/10 01:16:27;;;;;;;7.28;3.00;;;;;;;;;;4957353;29;20043;-84
2022/05/10 01:18:55;;;;;;;5.07;3.30;;;;;;;;;;4958446;29;20030;-84
2022/05/10 01:22:01;;;;;;;6.80;3.05;;;;;;;;;;4958164;29;20039;-84
2022/05/10 01:24:38;;;;;;;4.63;3.10;;;;;;;;;;4958217;29;20050;-84
2022/05/10 01:27:18;;;;;;;7.43;3.67;;;;;;;;;;4957304;28;20042;-84
2022/05/10 01:29:51;;;;;;;6.53;3.40;;;;;;;;;;4958772;29;20043;-83
2022/05/10 01:35:12;;;;;;;6.18;3.10;;;;;;;;;;4958168;29;20566;-84
2022/05/10 01:37:43;;;;;;;5.93;3.25;;;;;;;;;;4924269;29;20130;-84
2022/05/10 01:40:30;;;;;;;4.43;2.85;;;;;;;;;;4940610;29;20043;-84
2022/05/10 01:43:02;;;;;;;6.32;3.58;;;;;;;;;;4958402;29;20039;-84
2022/05/10 01:45:32;;;;;;;6.57;3.33;;;;;;;;;;4957867;29;20046;-84
2022/05/10 01:48:02;;;;;;;7.10;3.30;;;;;;;;;;4957650;29;20035;-84
2022/05/10 01:50:42;;;;;;;7.38;3.22;;;;;;;;;;4941261;29;20035;-84
2022/05/10 01:53:24;;;;;;;5.55;3.35;;;;;;;;;;4957922;29;20175;-84
2022/05/10 01:55:58;;;;;;;4.25;3.00;;;;;;;;;;4958044;29;20511;-84
2022/05/10 01:58:44;;;;;;;4.82;3.20;;;;;;;;;;4958242;29;20035;-84
2022/05/10 02:01:22;;;;;;;5.18;3.40;;;;;;;;;;4958123;29;20039;-84
2022/05/10 02:04:00;;;;;;;5.32;3.10;;;;;;;;;;4957724;29;20035;-84
2022/05/10 02:06:32;;;;;;;7.57;3.15;;;;;;;;;;4956547;29;20070;-84
2022/05/10 02:09:15;;;;;;;6.15;2.97;;;;;;;;;;4957364;29;20107;-84
2022/05/10 02:11:47;;;;;;;6.40;3.38;;;;;;;;;;4940321;29;20035;-84
2022/05/10 02:14:34;;;;;;;6.25;3.22;;;;;;;;;;4957830;29;20039;-84
2022/05/10 02:17:25;;;;;;;8.00;3.90;;;;;;;;;;4957757;29;20489;-84
2022/05/10 02:20:00;;;;;;;4.97;3.17;;;;;;;;;;4957703;29;20031;-84
2022/05/10 02:22:33;;;;;;;5.93;3.30;;;;;;;;;;4957867;29;20621;-84
2022/05/10 02:25:05;;;;;;;5.32;3.30;;;;;;;;;;4957339;29;20043;-84
2022/05/10 02:27:39;;;;;;;4.43;3.40;;;;;;;;;;4940022;29;20075;-84
2022/05/10 02:30:17;;;;;;;6.03;3.42;;;;;;;;;;4957491;29;20070;-84
2022/05/10 02:33:06;;;;;;;5.80;3.40;;;;;;;;;;4957660;29;20074;-84
2022/05/10 02:35:36;;;;;;;5.55;3.25;;;;;;;;;;4940257;29;20046;-84
2022/05/10 02:38:03;;;;;;;7.03;3.00;;;;;;;;;;4957246;28;20038;-84
2022/05/10 02:40:32;;;;;;;4.10;3.10;;;;;;;;;;4956944;29;20500;-84
2022/05/10 02:42:58;;;;;;;8.13;3.03;;;;;;;;;;4956948;29;20043;-84
2022/05/10 02:45:23;;;;;;;5.47;3.10;;;;;;;;;;4955803;29;20082;-84
2022/05/10 02:47:50;;;;;;;5.53;2.92;;;;;;;;;;4956626;28;20039;-84
2022/05/10 02:50:30;;;;;;;5.05;3.45;;;;;;;;;;4955496;28;20047;-84
2022/05/10 02:52:56;;;;;;;6.28;3.20;;;;;;;;;;4956987;29;20089;-84
2022/05/10 02:55:48;;;;;;;6.47;3.67;;;;;;;;;;4955287;29;20034;-84
2022/05/10 02:58:42;;;;;;;5.25;3.35;;;;;;;;;;4956638;29;20035;-84
2022/05/10 03:01:40;;;;;;;5.15;3.42;;;;;;;;;;4956934;29;20039;-84
2022/05/10 03:04:08;;;;;;;6.15;2.92;;;;;;;;;;4908049;29;20051;-84
2022/05/10 03:06:36;;;;;;;4.00;3.05;;;;;;;;;;4956948;29;20046;-84
2022/05/10 03:09:03;;;;;;;4.30;3.50;;;;;;;;;;4956515;29;20035;-84
2022/05/10 03:11:28;;;;;;;5.32;3.42;;;;;;;;;;4956382;29;20484;-83
2022/05/10 03:13:54;;;;;;;4.95;3.30;;;;;;;;;;4956314;29;20125;-84
2022/05/10 03:16:24;;;;;;;7.32;3.50;;;;;;;;;;4955344;28;20035;-84
2022/05/10 03:18:50;;;;;;;9.77;3.80;;;;;;;;;;4955336;28;20066;-84
2022/05/10 03:21:16;;;;;;;5.38;3.55;;;;;;;;;;4956637;29;20031;-84
2022/05/10 03:23:42;;;;;;;7.47;3.60;;;;;;;;;;4956330;29;20054;-83
2022/05/10 03:26:10;;;;;;;5.82;3.53;;;;;;;;;;4956624;29;20039;-83
2022/05/10 03:28:36;;;;;;;6.53;3.47;;;;;;;;;;4956252;29;20066;-83
2022/05/10 03:31:03;;;;;;;7.57;3.95;;;;;;;;;;4955973;29;20063;-83
2022/05/10 03:33:29;;;;;;;7.43;3.80;;;;;;;;;;4956062;29;20023;-83
2022/05/10 03:35:54;;;;;;;4.85;3.20;;;;;;;;;;4955211;29;20043;-83
2022/05/10 03:38:20;;;;;;;7.13;3.50;;;;;;;;;;4956439;29;20385;-83
2022/05/10 03:40:45;;;;;;;5.47;3.80;;;;;;;;;;4956457;29;20459;-83
2022/05/10 03:43:11;;;;;;;5.88;3.42;;;;;;;;;;4955977;29;20045;-83
2022/05/10 03:45:37;;;;;;;5.78;3.38;;;;;;;;;;4955949;29;20035;-83
2022/05/10 03:48:03;;;;;;;5.43;2.97;;;;;;;;;;4956170;29;20042;-83
2022/05/10 03:50:29;;;;;;;4.63;3.08;;;;;;;;;;4955707;29;20035;-83
2022/05/10 03:52:54;;;;;;;6.18;3.08;;;;;;;;;;4956001;29;20039;-83
2022/05/10 03:55:23;;;;;;;6.53;3.28;;;;;;;;;;4955765;29;20035;-83
2022/05/10 03:57:50;;;;;;;5.50;3.22;;;;;;;;;;4922760;29;20078;-83
2022/05/10 04:00:21;;;;;;;5.18;3.13;;;;;;;;;;4956624;28;20046;-83
2022/05/10 04:02:48;;;;;;;5.18;3.10;;;;;;;;;;4943507;29;20122;-83
2022/05/10 04:05:15;;;;;;;5.78;3.30;;;;;;;;;;4942610;29;20118;-83
2022/05/10 04:07:41;;;;;;;4.82;3.13;;;;;;;;;;4958624;29;20070;-83
2022/05/10 04:10:08;;;;;;;4.38;3.17;;;;;;;;;;4942304;29;20106;-83
2022/05/10 04:12:36;;;;;;;5.40;2.97;;;;;;;;;;4942708;29;20042;-83
2022/05/10 04:15:02;;;;;;;5.75;3.70;;;;;;;;;;4959811;29;20047;-83
2022/05/10 04:17:27;;;;;;;6.10;3.80;;;;;;;;;;4958844;28;20035;-83
2022/05/10 04:19:53;;;;;;;6.40;3.67;;;;;;;;;;4959522;29;20572;-83
2022/05/10 04:22:18;;;;;;;5.53;3.17;;;;;;;;;;4959466;29;20118;-83
2022/05/10 04:24:44;;;;;;;6.25;3.45;;;;;;;;;;4957898;29;20167;-83
2022/05/10 04:27:09;;;;;;;8.52;3.70;;;;;;;;;;4959146;29;20403;-83
2022/05/10 04:29:35;;;;;;;5.90;3.15;;;;;;;;;;4941980;29;20066;-83
2022/05/10 04:32:00;;;;;;;3.83;2.83;;;;;;;;;;4958392;29;20031;-84
2022/05/10 04:34:26;;;;;;;4.32;3.53;;;;;;;;;;4958705;29;20484;-83
2022/05/10 04:36:51;;;;;;;5.65;3.15;;;;;;;;;;4959257;29;20039;-83
2022/05/10 04:39:17;;;;;;;7.15;3.15;;;;;;;;;;4959378;29;20135;-83
2022/05/10 04:41:49;;;;;;;6.40;3.20;;;;;;;;;;4958369;29;20106;-83
2022/05/10 04:44:15;;;;;;;6.53;2.97;;;;;;;;;;4959165;28;20051;-83
2022/05/10 04:46:41;;;;;;;4.88;3.30;;;;;;;;;;4958824;29;20620;-83
2022/05/10 04:49:09;;;;;;;5.05;2.92;;;;;;;;;;4958990;29;20481;-83
2022/05/10 04:51:35;;;;;;;5.30;2.97;;;;;;;;;;4942727;29;20046;-83
2022/05/10 04:54:01;;;;;;;4.20;2.90;;;;;;;;;;4959010;29;20043;-84
2022/05/10 04:56:27;;;;;;;11.43;3.30;;;;;;;;;;4958613;29;20031;-84
2022/05/10 04:58:54;;;;;;;6.43;3.15;;;;;;;;;;4925713;29;20027;-84
2022/05/10 05:01:22;;;;;;;6.50;3.20;;;;;;;;;;4941122;29;20031;-84
2022/05/10 05:03:49;;;;;;;6.55;3.15;;;;;;;;;;4941509;29;20042;-83
2022/05/10 05:06:18;;;;;;;7.57;3.20;;;;;;;;;;4958535;29;20043;-83
2022/05/10 05:08:45;;;;;;;4.53;3.10;;;;;;;;;;4958263;29;20081;-83
2022/05/10 05:11:10;;;;;;;7.60;3.35;;;;;;;;;;4941093;29;20058;-84
2022/05/10 05:13:36;;;;;;;8.13;3.00;;;;;;;;;;4958647;29;20027;-84
2022/05/10 05:16:02;;;;;;;4.85;3.05;;;;;;;;;;4958504;29;20054;-84
2022/05/10 05:18:28;;;;;;;8.00;3.95;;;;;;;;;;4941290;29;20031;-83
2022/05/10 05:20:54;;;;;;;6.60;3.80;;;;;;;;;;4958568;29;20027;-84
2022/05/10 05:23:21;;;;;;;6.20;3.22;;;;;;;;;;4958819;29;20027;-84
2022/05/10 05:25:47;;;;;;;6.05;3.67;;;;;;;;;;4940828;29;20153;-84
2022/05/10 05:28:12;;;;;;;6.07;2.95;;;;;;;;;;4958676;29;20070;-84
2022/05/10 05:30:40;;;;;;;5.10;3.42;;;;;;;;;;4940519;29;20074;-84
2022/05/10 05:33:06;;;;;;;4.65;2.85;;;;;;;;;;4958049;29;20158;-83
2022/05/10 05:35:33;;;;;;;4.07;2.90;;;;;;;;;;4958425;29;20035;-85
2022/05/10 05:37:58;;;;;;;5.43;3.20;;;;;;;;;;4940709;29;20452;-84
2022/05/10 05:40:24;;;;;;;5.55;2.65;;;;;;;;;;4958468;29;20038;-83
2022/05/10 05:42:51;;;;;;;5.72;2.63;;;;;;;;;;4940793;29;20035;-83
2022/05/10 05:45:19;;;;;;;4.53;2.85;;;;;;;;;;4956723;28;20043;-83
2022/05/10 05:47:45;;;;;;;4.60;2.90;;;;;;;;;;4958379;29;20042;-84
2022/05/10 05:50:14;;;;;;;4.97;3.10;;;;;;;;;;4957730;29;20031;-84
2022/05/10 05:52:40;;;;;;;7.07;2.90;;;;;;;;;;4958047;29;20106;-84
2022/05/10 05:55:08;;;;;;;3.88;2.60;;;;;;;;;;4957672;29;20039;-84
2022/05/10 05:57:33;;;;;;;6.55;2.50;;;;;;;;;;4940826;29;20097;-84
2022/05/10 05:59:59;;;;;;;4.40;2.53;;;;;;;;;;4957623;29;20028;-84
2022/05/10 06:02:26;;;;;;;4.20;2.50;;;;;;;;;;4958332;29;20047;-84
2022/05/10 06:04:52;;;;;;;9.63;2.50;;;;;;;;;;4958080;29;20047;-84
2022/05/10 06:07:19;;;;;;;3.90;2.20;;;;;;;;;;4957753;29;20444;-84
2022/05/10 06:09:46;;;;;;;7.15;2.38;;;;;;;;;;4958000;29;20070;-84
2022/05/10 06:12:13;;;;;;;5.70;2.50;;;;;;;;;;4957737;29;20035;-83
2022/05/10 06:14:39;;;;;;;4.80;2.25;;;;;;;;;;4956460;29;20055;-85
2022/05/10 06:17:06;;;;;;;2.72;2.22;;;;;;;;;;4957902;29;20133;-85
2022/05/10 06:19:36;;;;;;;4.28;2.15;;;;;;;;;;4957891;29;20034;-86
2022/05/10 06:22:02;;;;;;;6.38;2.10;;;;;;;;;;4958023;29;20039;-85
2022/05/10 06:24:27;;;;;;;4.70;1.88;;;;;;;;;;4957240;28;20119;-86
2022/05/10 06:26:53;;;;;;;5.28;2.15;;;;;;;;;;4957051;29;20071;-86
2022/05/10 06:29:19;;;;;;;3.30;2.40;;;;;;;;;;4960386;29;20046;-83
2022/05/10 06:31:45;;;;;;;6.45;2.30;;;;;;;;;;4956155;29;20164;-84
2022/05/10 06:34:11;;;;;;;4.95;2.13;;;;;;;;;;4956927;29;20049;-84
2022/05/10 06:36:38;;;;;;;3.65;2.00;;;;;;;;;;4957629;29;20047;-84
2022/05/10 06:39:03;;;;;;;5.25;2.40;;;;;;;;;;4958061;29;20035;-84
2022/05/10 06:41:31;;;;;;;6.25;2.10;;;;;;;;;;4958224;29;20038;-85
2022/05/10 06:43:58;;;;;;;5.32;2.15;;;;;;;;;;4957311;29;20038;-83
2022/05/10 06:46:26;;;;;;;3.67;2.05;;;;;;;;;;4955977;29;20062;-84
2022/05/10 06:48:52;;;;;;;4.10;1.90;;;;;;;;;;4957186;29;20105;-86
2022/05/10 06:51:19;;;;;;;7.10;2.20;;;;;;;;;;4940145;29;20046;-85
2022/05/10 06:53:45;;;;;;;4.30;2.40;;;;;;;;;;4957539;29;20504;-86
2022/05/10 06:56:11;;;;;;;4.30;2.00;;;;;;;;;;4957366;29;20042;-85
2022/05/10 06:58:37;;;;;;;3.58;2.13;;;;;;;;;;4957521;29;20045;-85
2022/05/10 07:01:11;;;;;;;4.30;1.85;;;;;;;;;;4956873;29;20050;-86
2022/05/10 07:03:45;;;;;;;4.13;2.08;;;;;;;;;;4957830;29;20130;-86
2022/05/10 07:06:23;;;;;;;7.88;2.17;;;;;;;;;;4944343;29;20047;-85
2022/05/10 07:08:51;;;;;;;3.28;2.10;;;;;;;;;;4947100;29;20039;-85
2022/05/10 07:11:18;;;;;;;3.25;2.00;;;;;;;;;;4943140;29;20066;-85
2022/05/10 07:13:43;;;;;;;6.03;2.25;;;;;;;;;;4960908;29;20558;-85
2022/05/10 07:16:09;;;;;;;4.07;1.98;;;;;;;;;;4960381;29;20126;-84
2022/05/10 07:18:35;;;;;;;4.45;2.10;;;;;;;;;;4960761;29;20055;-85
2022/05/10 07:21:00;;;;;;;3.28;2.20;;;;;;;;;;4961263;29;20035;-85
2022/05/10 07:23:29;;;;;;;4.65;2.00;;;;;;;;;;4961197;29;20039;-85
2022/05/10 07:25:55;;;;;;;5.97;2.15;;;;;;;;;;4943805;29;20039;-85
2022/05/10 07:28:21;;;;;;;3.38;2.17;;;;;;;;;;4961261;28;20102;-85
2022/05/10 07:30:47;;;;;;;5.25;2.10;;;;;;;;;;4960368;29;20066;-85
2022/05/10 07:33:18;;;;;;;5.32;2.05;;;;;;;;;;4943611;29;20035;-85
2022/05/10 07:38:28;;;;;;;4.13;1.90;;;;;;;;;;4960526;29;20031;-85
2022/05/10 07:40:54;;;;;;;3.13;2.20;;;;;;;;;;4960036;29;20443;-85
2022/05/10 07:43:20;;;;;;;5.32;2.00;;;;;;;;;;4959934;29;20036;-85
2022/05/10 07:45:49;;;;;;;3.22;2.10;;;;;;;;;;4961267;29;20091;-85
2022/05/10 07:48:16;;;;;;;4.57;2.20;;;;;;;;;;4961690;29;20078;-85
2022/05/10 07:50:42;;;;;;;5.00;2.50;;;;;;;;;;4961674;29;20039;-86
2022/05/10 07:53:13;;;;;;;4.07;2.53;;;;;;;;;;4961866;29;20075;-86
2022/05/10 07:55:39;;;;;;;7.03;2.40;;;;;;;;;;4961600;29;20106;-86
2022/05/10 07:58:06;;;;;;;5.72;2.55;;;;;;;;;;4960864;29;20035;-86
2022/05/10 08:00:33;;;;;;;3.88;2.63;;;;;;;;;;4962394;29;20035;-86
2022/05/10 08:02:58;;;;;;;5.90;2.47;;;;;;;;;;4961520;29;20608;-86
2022/05/10 08:05:25;;;;;;;4.95;3.00;;;;;;;;;;4962232;29;20066;-86
2022/05/10 08:07:51;;;;;;;5.07;2.35;;;;;;;;;;4945500;29;20111;-86
2022/05/10 08:10:18;;;;;;;9.00;2.28;;;;;;;;;;4962961;29;20042;-85
2022/05/10 08:12:44;;;;;;;4.43;2.40;;;;;;;;;;4962728;29;20041;-85
2022/05/10 08:15:13;;;;;;;3.85;2.50;;;;;;;;;;4963146;29;20035;-85
2022/05/10 08:17:39;;;;;;;4.47;2.40;;;;;;;;;;4963280;29;20038;-85
2022/05/10 08:20:06;;;;;;;6.20;2.60;;;;;;;;;;4963277;29;20047;-85
2022/05/10 08:22:32;;;;;;;7.18;2.80;;;;;;;;;;4962768;29;20074;-85
2022/05/10 08:24:58;;;;;;;3.33;2.30;;;;;;;;;;4963011;29;20035;-86
2022/05/10 08:27:23;;;;;;;4.15;2.40;;;;;;;;;;4964050;29;20481;-86
2022/05/10 08:29:49;;;;;;;4.93;2.40;;;;;;;;;;4964437;29;20103;-85
2022/05/10 08:32:15;;;;;;;7.10;2.63;;;;;;;;;;4963925;29;20039;-84
2022/05/10 08:34:41;;;;;;;5.85;2.50;;;;;;;;;;4964883;29;20475;-85
2022/05/10 08:37:07;;;;;;;6.28;2.90;;;;;;;;;;4964449;29;20035;-85
2022/05/10 08:39:33;;;;;;;4.93;2.40;;;;;;;;;;4963492;28;20035;-86
2022/05/10 08:42:02;;;;;;;4.50;2.33;;;;;;;;;;4956814;29;20049;-86
2022/05/10 08:44:32;;;;;;;3.50;2.50;;;;;;;;;;4956143;29;20031;-86
2022/05/10 08:47:01;;;;;;;5.75;2.38;;;;;;;;;;4958275;28;20061;-89
2022/05/10 08:49:52;;;;;;;6.47;2.30;;;;;;;;;;4961481;29;20039;-86
2022/05/10 08:52:18;;;;;;;5.93;2.50;;;;;;;;;;4961142;29;20082;-86
2022/05/10 08:54:44;;;;;;;4.68;2.40;;;;;;;;;;4960902;28;20038;-84
2022/05/10 08:57:48;;;;;;;5.32;2.50;;;;;;;;;;4944674;29;20047;-86
2022/05/10 09:00:16;;;;;;;5.18;2.45;;;;;;;;;;4961438;29;20480;-85
2022/05/10 09:02:48;;;;;;;3.97;2.67;;;;;;;;;;4960752;29;20027;-86
2022/05/10 09:05:29;;;;;;;4.28;2.30;;;;;;;;;;4960101;28;20046;-85
2022/05/10 09:08:13;;;;;;;5.85;2.20;;;;;;;;;;4961402;29;20113;-86
2022/05/10 09:10:53;;;;;;;4.60;2.42;;;;;;;;;;4961751;29;20062;-86
2022/05/10 09:13:21;;;;;;;3.70;2.33;;;;;;;;;;4961824;29;20070;-86
2022/05/10 09:16:00;;;;;;;5.53;2.50;;;;;;;;;;4960240;28;20128;-86
2022/05/10 09:18:35;;;;;;;4.10;2.25;;;;;;;;;;4961746;29;20043;-86
2022/05/10 09:21:26;;;;;;;4.30;2.45;;;;;;;;;;4961348;29;20554;-86
2022/05/10 09:23:57;;;;;;;3.75;2.20;;;;;;;;;;4959708;29;20035;-86
2022/05/10 09:26:30;;;;;;;4.00;2.17;;;;;;;;;;4960913;29;20099;-85
2022/05/10 09:28:55;;;;;;;4.65;2.00;;;;;;;;;;4960833;29;20069;-86
2022/05/10 09:37:30;;;;;;;3.42;2.20;;;;;;;;;;4960848;29;20034;-86
2022/05/10 09:39:56;;;;;;;6.85;2.83;;;;;;;;;;4929228;29;20102;-86
2022/05/10 09:42:28;;;;;;;4.75;2.28;;;;;;;;;;4959689;29;20035;-88
2022/05/10 09:45:29;;;;;;;6.43;2.40;;;;;;;;;;4959671;29;20062;-86
2022/05/10 09:48:02;;;;;;;3.83;2.50;;;;;;;;;;4961311;29;20035;-86
2022/05/10 09:50:34;;;;;;;4.68;2.33;;;;;;;;;;4960199;29;20058;-86
2022/05/10 09:53:27;;;;;;;4.35;2.38;;;;;;;;;;4960035;29;20031;-86
2022/05/10 09:56:03;;;;;;;6.03;2.75;;;;;;;;;;4941175;29;20043;-85
2022/05/10 09:58:34;;;;;;;7.35;2.80;;;;;;;;;;4956736;28;20031;-87
2022/05/10 10:01:04;;;;;;;4.93;2.47;;;;;;;;;;4961476;29;20047;-86
2022/05/10 10:03:40;;;;;;;5.45;2.58;;;;;;;;;;4961009;28;20098;-86
2022/05/10 10:06:16;;;;;;;7.95;3.38;;;;;;;;;;4962071;29;20046;-87
2022/05/10 10:08:55;;;;;;;5.18;2.60;;;;;;;;;;4942640;29;20039;-87
2022/05/10 10:11:25;;;;;;;6.63;3.08;;;;;;;;;;4959987;29;20490;-86
2022/05/10 10:14:06;;;;;;;7.25;2.72;;;;;;;;;;4942290;29;20515;-86
2022/05/10 10:16:37;;;;;;;6.10;2.97;;;;;;;;;;4942884;29;20038;-86
2022/05/10 10:19:11;;;;;;;7.65;2.88;;;;;;;;;;4942365;29;20035;-86
2022/05/10 10:21:51;;;;;;;3.90;2.63;;;;;;;;;;4959890;29;20035;-86
2022/05/10 10:24:25;;;;;;;4.15;2.70;;;;;;;;;;4959311;29;20047;-86
2022/05/10 10:27:02;;;;;;;4.38;2.70;;;;;;;;;;4941438;29;20031;-85
2022/05/10 10:29:51;;;;;;;6.78;3.17;;;;;;;;;;4959683;29;20039;-86
2022/05/10 10:32:32;;;;;;;6.78;3.00;;;;;;;;;;4941143;29;20066;-86
2022/05/10 10:35:21;;;;;;;5.38;2.70;;;;;;;;;;4959108;29;20046;-86
2022/05/10 10:37:54;;;;;;;5.53;3.03;;;;;;;;;;4958808;29;20090;-86
2022/05/10 10:40:26;;;;;;;6.43;2.70;;;;;;;;;;4942247;29;20043;-87
2022/05/10 10:42:59;;;;;;;7.60;3.05;;;;;;;;;;4959292;29;20047;-86
2022/05/10 10:45:37;;;;;;;;;;;;;;;;;;4942136;29;20051;-86
2022/05/10 10:48:33;;;;;;;5.15;2.78;;;;;;;;;;4941779;29;19914;-86
2022/05/10 10:50:59;;;;;;;6.30;2.65;;;;;;;;;;4942942;29;20059;-86
2022/05/10 10:53:27;;;;;;;6.18;2.85;;;;;;;;;;4959134;29;20042;-88
2022/05/10 10:56:11;;;;;;;10.43;2.90;;;;;;;;;;4958292;28;20062;-88
2022/05/10 10:58:48;;;;;;;4.95;2.60;;;;;;;;;;4960940;29;20047;-87
2022/05/10 11:01:28;;;;;;;8.80;2.70;;;;;;;;;;4960693;29;20492;-86
2022/05/10 11:04:16;;;;;;;7.22;2.72;;;;;;;;;;4943482;29;20045;-86
2022/05/10 11:06:50;;;;;;;3.42;2.58;;;;;;;;;;4959496;29;20039;-86
2022/05/10 11:09:47;;;;;;;6.35;2.58;;;;;;;;;;4959812;28;20039;-86
2022/05/10 11:12:34;;;;;;;4.25;2.75;;;;;;;;;;4959390;29;20107;-88
2022/05/10 11:15:23;;;;;;;4.43;2.50;;;;;;;;;;4940001;29;20089;-87
2022/05/10 11:18:14;;;;;;;5.55;3.10;;;;;;;;;;4958114;29;20046;-87
2022/05/10 11:20:52;;;;;;;6.75;2.97;;;;;;;;;;4940902;29;20039;-87
2022/05/10 11:23:48;;;;;;;6.72;3.03;;;;;;;;;;4941155;29;20122;-88
2022/05/10 11:26:29;;;;;;;5.43;2.90;;;;;;;;;;4941151;29;20137;-86
2022/05/10 11:29:19;;;;;;;5.35;2.78;;;;;;;;;;4957984;29;20039;-87
2022/05/10 11:31:56;;;;;;;6.15;2.75;;;;;;;;;;4960937;29;20051;-87
2022/05/10 11:34:56;;;;;;;4.95;3.03;;;;;;;;;;4958523;29;20039;-88
2022/05/10 11:37:30;;;;;;;4.82;2.47;;;;;;;;;;4959335;29;20481;-87
2022/05/10 11:40:01;;;;;;;4.82;2.47;;;;;;;;;;4960289;29;20506;-87
2022/05/10 11:42:39;;;;;;;4.15;2.60;;;;;;;;;;4941990;29;20058;-87
2022/05/10 11:45:39;;;;;;;5.90;2.92;;;;;;;;;;4958255;29;20039;-88
2022/05/10 11:48:32;;;;;;;4.45;2.38;;;;;;;;;;4959865;29;20074;-87
2022/05/10 11:51:38;;;;;;;3.70;2.40;;;;;;;;;;4943156;29;20039;-87
2022/05/10 11:54:31;;;;;;;5.55;2.58;;;;;;;;;;4944099;29;20473;-87
2022/05/10 11:56:59;;;;;;;3.38;2.50;;;;;;;;;;4961597;29;20034;-88
2022/05/10 11:59:32;;;;;;;3.58;2.40;;;;;;;;;;4944103;29;20032;-87
2022/05/10 12:01:58;;;;;;;;;;;;;;;;;;4961653;29;20038;-87
2022/05/10 12:04:34;;;;;;;7.70;2.53;;;;;;;;;;4943503;29;19914;-87
2022/05/10 12:07:18;;;;;;;5.43;2.63;;;;;;;;;;4958270;29;20066;-87
2022/05/10 12:09:56;;;;;;;3.88;2.42;;;;;;;;;;4961908;29;20559;-88
2022/05/10 12:12:31;;;;;;;5.05;2.40;;;;;;;;;;4964459;29;20480;-88
2022/05/10 12:21:20;;;;;;;5.70;2.30;;;;;;;;;;4963279;28;20407;-89
2022/05/10 12:24:24;;;;;;;6.35;2.38;;;;;;;;;;4966604;29;20098;-87
2022/05/10 12:26:55;;;;;;;4.63;2.50;;;;;;;;;;4889335;29;20041;-88
2022/05/10 12:29:39;;;;;;;5.60;2.30;;;;;;;;;;4954646;29;20050;-88
2022/05/10 12:32:26;;;;;;;4.35;2.10;;;;;;;;;;4967643;29;20027;-89
2022/05/10 12:35:04;;;;;;;5.95;2.40;;;;;;;;;;4950275;29;20488;-87
2022/05/10 12:37:30;;;;;;;4.60;2.42;;;;;;;;;;4950577;29;20137;-87
2022/05/10 12:40:08;;;;;;;4.15;2.30;;;;;;;;;;4967757;29;20039;-89
2022/05/10 12:42:38;;;;;;;4.97;2.30;;;;;;;;;;4967883;29;20031;-88
2022/05/10 12:45:25;;;;;;;2.70;2.35;;;;;;;;;;4966727;29;20506;-89
2022/05/10 12:48:08;;;;;;;6.03;2.22;;;;;;;;;;4950247;29;20039;-87
2022/05/10 12:50:52;;;;;;;6.78;2.40;;;;;;;;;;4967073;29;20465;-86
2022/05/10 12:53:25;;;;;;;3.03;2.20;;;;;;;;;;4966903;29;20039;-86
2022/05/10 12:56:00;;;;;;;3.33;2.17;;;;;;;;;;4965266;28;20039;-86
2022/05/10 12:58:34;;;;;;;6.20;2.30;;;;;;;;;;4949716;29;20612;-84
2022/05/10 13:01:01;;;;;;;4.22;2.20;;;;;;;;;;4966840;29;20043;-87
2022/05/10 13:03:45;;;;;;;3.05;2.17;;;;;;;;;;4965956;29;20046;-87
2022/05/10 13:06:16;;;;;;;3.63;2.05;;;;;;;;;;4966956;29;20046;-87
2022/05/10 13:09:00;;;;;;;4.22;2.20;;;;;;;;;;4965662;29;20043;-87
2022/05/10 13:11:31;;;;;;;;;;;;;;;;;;4967843;29;20049;-87
2022/05/10 13:14:00;;;;;;;2.88;2.28;;;;;;;;;;4965603;29;19918;-88
2022/05/10 13:16:26;;;;;;;2.70;1.90;;;;;;;;;;4964879;29;20502;-88
2022/05/10 13:18:54;;;;;;;3.28;2.05;;;;;;;;;;4965214;29;20062;-87
2022/05/10 13:21:26;;;;;;;4.32;2.10;;;;;;;;;;4963704;28;20039;-87
2022/05/10 13:23:53;;;;;;;4.45;2.10;;;;;;;;;;4965951;29;20035;-89
2022/05/10 13:26:19;;;;;;;5.18;2.22;;;;;;;;;;4966031;29;20432;-88
2022/05/10 13:28:54;;;;;;;3.53;2.10;;;;;;;;;;4948455;29;20035;-87
2022/05/10 13:31:27;;;;;;;3.55;1.80;;;;;;;;;;4965319;29;20039;-88
2022/05/10 13:34:09;;;;;;;5.20;1.88;;;;;;;;;;4963208;28;20047;-87
2022/05/10 13:36:36;;;;;;;3.53;2.10;;;;;;;;;;4964600;29;20039;-87
2022/05/10 13:39:02;;;;;;;4.15;2.05;;;;;;;;;;4964687;29;20023;-88
2022/05/10 13:41:30;;;;;;;3.80;2.05;;;;;;;;;;4966194;29;20035;-89
2022/05/10 13:44:04;;;;;;;4.45;2.20;;;;;;;;;;4966303;29;20067;-88
2022/05/10 13:46:48;;;;;;;3.58;2.10;;;;;;;;;;4965581;29;20035;-89
2022/05/10 13:49:19;;;;;;;3.63;2.10;;;;;;;;;;4965863;29;20035;-87
2022/05/10 13:51:52;;;;;;;3.05;2.00;;;;;;;;;;4966063;29;20043;-88
2022/05/10 13:54:24;;;;;;;4.90;2.33;;;;;;;;;;4964738;29;20031;-87
2022/05/10 13:56:50;;;;;;;5.57;2.10;;;;;;;;;;4947550;29;20130;-86
2022/05/10 13:59:28;;;;;;;3.10;2.00;;;;;;;;;;4964902;29;20050;-88
2022/05/10 14:01:54;;;;;;;3.25;2.05;;;;;;;;;;4948198;29;20101;-87
2022/05/10 14:04:20;;;;;;;3.67;1.98;;;;;;;;;;4948283;29;20511;-87
2022/05/10 14:06:57;;;;;;;6.18;2.00;;;;;;;;;;4964856;29;20039;-88
2022/05/10 14:09:25;;;;;;;6.43;2.20;;;;;;;;;;4965084;29;20031;-87
2022/05/10 14:11:53;;;;;;;3.17;1.80;;;;;;;;;;4962508;29;20401;-87
2022/05/10 14:14:27;;;;;;;3.38;1.98;;;;;;;;;;4965952;29;20063;-87
2022/05/10 14:16:55;;;;;;;3.10;1.92;;;;;;;;;;4966978;29;20039;-88
2022/05/10 14:19:33;;;;;;;2.97;1.80;;;;;;;;;;4966693;29;20027;-87
2022/05/10 14:22:05;;;;;;;4.63;2.00;;;;;;;;;;4966632;29;20043;-88
2022/05/10 14:24:33;;;;;;;3.80;1.88;;;;;;;;;;4966306;29;20043;-89
2022/05/10 14:27:12;;;;;;;3.65;2.00;;;;;;;;;;4949615;29;20035;-88
2022/05/10 14:29:43;;;;;;;4.50;1.90;;;;;;;;;;4966275;29;20043;-88
2022/05/10 14:32:12;;;;;;;2.17;1.80;;;;;;;;;;4966381;29;20039;-87
2022/05/10 14:35:22;;;;;;;2.95;2.05;;;;;;;;;;4964480;28;20027;-89
2022/05/10 14:37:49;;;;;;;3.25;1.92;;;;;;;;;;4966439;29;20032;-88
2022/05/10 14:40:35;;;;;;;5.93;2.20;;;;;;;;;;4966477;29;20036;-87
2022/05/10 14:43:05;;;;;;;3.40;2.20;;;;;;;;;;4966794;29;20038;-87
2022/05/10 14:45:36;;;;;;;4.10;2.10;;;;;;;;;;4965035;28;20500;-88
2022/05/10 14:48:19;;;;;;;7.32;2.83;;;;;;;;;;4965804;29;20050;-88
2022/05/10 14:50:47;;;;;;;5.15;2.50;;;;;;;;;;4965508;29;20035;-89
2022/05/10 14:53:21;;;;;;;3.55;2.20;;;;;;;;;;4966031;29;20027;-88
2022/05/10 14:56:07;;;;;;;2.78;2.08;;;;;;;;;;4965755;29;20463;-89
2022/05/10 14:58:36;;;;;;;3.53;2.00;;;;;;;;;;4952350;29;20584;-87
2022/05/10 15:01:11;;;;;;;3.40;2.08;;;;;;;;;;4948879;29;20039;-87
2022/05/10 15:03:38;;;;;;;3.55;2.10;;;;;;;;;;4966044;29;20050;-87
2022/05/10 15:06:07;;;;;;;2.67;2.03;;;;;;;;;;4947729;29;20027;-89
2022/05/10 15:08:33;;;;;;;5.43;2.17;;;;;;;;;;4948622;29;20039;-88
2022/05/10 15:10:59;;;;;;;4.97;1.98;;;;;;;;;;4966227;28;20059;-88
2022/05/10 15:13:28;;;;;;;4.40;2.10;;;;;;;;;;4964461;29;20035;-88
2022/05/10 15:15:59;;;;;;;2.65;1.90;;;;;;;;;;4965317;29;20046;-88
2022/05/10 15:21:13;;;;;;;3.88;1.88;;;;;;;;;;4947672;29;20039;-88
2022/05/10 15:23:40;;;;;;;4.65;2.20;;;;;;;;;;4948346;29;20050;-91
2022/05/10 15:26:09;;;;;;;6.68;2.10;;;;;;;;;;4961636;29;20035;-88
2022/05/10 15:28:34;;;;;;;2.85;1.90;;;;;;;;;;4948146;29;20043;-88
2022/05/10 15:31:00;;;;;;;7.35;1.92;;;;;;;;;;4963865;29;20126;-88
2022/05/10 15:33:26;;;;;;;2.97;1.95;;;;;;;;;;4947156;29;20095;-88
2022/05/10 15:35:55;;;;;;;4.15;2.10;;;;;;;;;;4965139;29;20043;-89